Orlando, Florida
Traffic Map
Current Weather Conditions
Orlando, Florida
Clear
Clear
74°
Feels Like: 74°
Wind Chill: 74° Ceiling: Unl
Heat Index: 74° Visibility: 10mi
Dew Point: 59° Wind: 7mph
Humidity: 59% Direction: 330° (NNW)
Pressure: 30.08in Gusts: 0mph
Raw Report DataKORL 261253Z 33006KT 10SM CLR 23/15 A3008 RMK AO2 SLP188 T02330150
Traffic Incident Summary
Active as of:
Severity:
Category:
InformationThere was an issue retrieving the traffic information for this location. Please try a different location or try again shortly.
Advertisements
Track Severe Weather on mobile